Latest Coastal Weather Observations for Low Head

IDV60701

Issued at 9:52 am EST Saturday 19 August 2017 (issued every 10 minutes, with the page automatically refreshed every 10 minutes)

About coastal observations | Map of coastal stations | Coastal observations for VIC | Marine services | Other Formats
Station Details ID: 091293 Name: LOW HEAD Lat: -41.05 Lon: 146.79 Height: 3.0 m
Data from the previous 72 hours. | See also: Recent months at Low Head
Date/Time
EST
Temp
°C
Wind Pressure Rain since
9am
mm
Weather Cloud Vis
km
Sea
Height
m
Swell
Dir  Spd
kts
Gust
kts
hPa Trend Height
m
Period
s
Dir
19/09:30am 6.4 S 4 5 1023.7 - 0.0 - - - - - - -
19/09:00am 5.6 SSE 7 9 1023.5 - 0.0 - - - - - - -
19/08:30am 4.4 S 8 10 1023.2 - 0.0 - - - - - - -
19/08:00am 4.4 SSE 7 8 1022.9 - 0.0 - - - - - - -
19/07:30am 3.5 SSE 8 8 1022.2 - 0.0 - - - - - - -
19/07:00am 3.4 SSE 5 7 1021.9 - 0.0 - - - - - - -
19/06:30am 3.1 SSE 5 6 1021.4 - 0.0 - - - - - - -
19/06:00am 3.7 S 4 5 1020.9 - 0.0 - - - - - - -
19/05:30am 4.3 S 5 7 1020.7 - 0.0 - - - - - - -
19/05:00am 3.6 S 6 7 1020.2 - 0.0 - - - - - - -
19/04:30am 4.1 SSE 5 7 1019.7 - 0.0 - - - - - - -
19/04:00am 5.4 S 8 10 1019.5 - 0.0 - - - - - - -
19/03:30am 5.2 SSW 5 7 1019.1 - 0.0 - - - - - - -
19/03:00am 4.3 S 6 8 1018.8 - 0.0 - - - - - - -
19/02:30am 5.7 SSW 10 12 1018.6 - 0.0 - - - - - - -
19/02:00am 6.1 SW 11 13 1018.2 - 0.0 - - - - - - -
19/01:30am 7.2 WSW 12 14 1017.9 - 0.0 - - - - - - -
19/01:00am 7.3 WSW 8 11 1017.5 - 0.0 - - - - - - -
19/12:30am 6.2 SW 5 7 1017.0 - 0.0 - - - - - - -
19/12:00am 4.9 S 5 6 1016.8 - 0.0 - - - - - - -
 
Date/Time
EST
Temp
°C
Wind Pressure Rain since
9am
mm
Weather Cloud Vis
km
Sea
Height
m
Swell
Dir  Spd
kts
Gust
kts
hPa Trend Height
m
Period
s
Dir
18/11:30pm 5.4 SSE 6 9 1016.5 - 0.0 - - - - - - -
18/11:00pm 6.5 SSW 8 11 1016.2 - 0.0 - - - - - - -
18/10:30pm 6.6 S 8 10 1015.9 - 0.0 - - - - - - -
18/10:00pm 5.5 SSE 6 8 1015.4 - 0.0 - - - - - - -
18/09:30pm 7.2 SSW 9 11 1015.0 - 0.0 - - - - - - -
18/09:00pm 6.7 S 7 9 1014.3 - 0.0 - - - - - - -
18/08:30pm 7.6 SSW 9 11 1013.5 - 0.0 - - - - - - -
18/08:00pm 7.9 S 12 14 1012.9 - 0.0 - - - - - - -
18/07:30pm 8.2 S 10 12 1012.2 - 0.0 - - - - - - -
18/07:00pm 8.5 S 10 13 1011.6 - 0.0 - - - - - - -
18/06:30pm 7.7 SE 7 12 1010.8 - 0.0 - - - - - - -
18/06:00pm 9.5 SSW 14 17 1009.7 - 0.0 - - - - - - -
18/05:30pm 9.8 SSW 12 14 1008.9 - 0.0 - - - - - - -
18/05:00pm 10.3 SSW 14 18 1008.1 - 0.0 - - - - - - -
18/04:30pm 10.7 SSW 22 26 1007.1 - 0.0 - - - - - - -
18/04:00pm 11.8 SSW 18 23 1006.2 - 0.0 - - - - - - -
18/03:55pm 11.9 SSW 16 23 1006.0 - 0.0 - - - - - - -
18/03:30pm 11.9 SW 14 18 1005.6 - 0.0 - - - - - - -
18/03:00pm 11.5 SW 14 19 1005.0 - 0.0 - - - - - - -
18/02:30pm 11.6 SW 9 11 1004.5 - 0.0 - - - - - - -
18/02:00pm 11.7 W 14 17 1004.2 - 0.0 - - - - - - -
18/01:30pm 12.2 SW 12 15 1003.8 - 0.0 - - - - - - -
18/01:00pm 12.1 SSW 9 14 1003.6 - 0.0 - - - - - - -
18/12:30pm 11.6 SSW 5 8 1003.3 - 0.0 - - - - - - -
18/12:00pm 11.0 W 5 8 1003.3 - 0.0 - - - - - - -
18/11:30am 11.7 WNW 8 11 1003.1 - 0.0 - - - - - - -
18/11:00am 9.7 WSW 7 9 1002.8 - 0.0 - - - - - - -
18/10:30am 9.5 SSW 7 10 1002.4 - 0.0 - - - - - - -
18/10:00am 9.1 SW 10 12 1002.0 - 0.0 - - - - - - -
18/09:30am 8.9 WSW 9 12 1001.7 - 0.0 - - - - - - -
18/09:00am 8.7 SW 10 12 1001.5 - 3.2 - - - - - - -
18/08:30am 8.5 WSW 12 15 1001.0 - 3.2 - - - - - - -
18/08:00am 8.3 W 17 19 1000.1 - 3.2 - - - - - - -
18/07:30am 8.0 W 15 16 999.6 - 3.2 - - - - - - -
18/07:00am 8.1 WSW 15 17 999.1 - 3.2 - - - - - - -
18/06:30am 8.1 WSW 13 15 998.8 - 3.2 - - - - - - -
18/06:00am 8.3 WSW 11 14 998.4 - 3.2 - - - - - - -
18/05:30am 8.0 WSW 11 13 998.1 - 3.2 - - - - - - -
18/05:00am 7.9 W 13 14 997.8 - 3.2 - - - - - - -
18/04:30am 7.9 WSW 12 14 997.6 - 3.2 - - - - - - -
18/04:00am 7.7 SW 11 12 997.1 - 3.2 - - - - - - -
18/03:30am 7.8 SW 10 11 996.9 - 3.2 - - - - - - -
18/03:00am 8.2 SW 9 11 996.7 - 3.2 - - - - - - -
18/02:30am 8.6 WSW 10 15 996.8 - 3.2 - - - - - - -
18/02:00am 9.2 W 16 18 996.8 - 3.2 - - - - - - -
18/01:30am 8.9 W 16 19 996.9 - 3.2 - - - - - - -
18/01:00am 9.1 W 15 18 996.9 - 3.2 - - - - - - -
18/12:30am 8.9 W 18 21 996.7 - 3.2 - - - - - - -
18/12:00am 8.9 WNW 18 21 996.6 - 3.2 - - - - - - -
 
Date/Time
EST
Temp
°C
Wind Pressure Rain since
9am
mm
Weather Cloud Vis
km
Sea
Height
m
Swell
Dir  Spd
kts
Gust
kts
hPa Trend Height
m
Period
s
Dir
17/11:41pm 8.6 WSW 11 22 996.5 - 3.2 - - - - - - -
17/11:30pm 8.6 SSW 8 9 996.8 - 3.2 - - - - - - -
17/11:00pm 8.6 SW 6 8 996.8 - 3.2 - - - - - - -
17/10:30pm 8.9 WSW 13 18 996.9 - 3.2 - - - - - - -
17/10:00pm 9.7 W 15 17 996.8 - 3.2 - - - - - - -
17/09:30pm 9.4 W 15 19 996.7 - 3.2 - - - - - - -
17/09:00pm 9.7 W 19 24 996.3 - 3.2 - - - - - - -
17/08:30pm 10.0 W 22 27 996.1 - 3.2 - - - - - - -
17/08:00pm 9.8 W 21 25 996.1 - 3.2 - - - - - - -
17/07:30pm 9.9 W 23 27 995.8 - 3.2 - - - - - - -
17/07:00pm 9.7 W 21 25 995.4 - 3.2 - - - - - - -
17/06:30pm 9.5 W 20 25 995.1 - 3.2 - - - - - - -
17/06:00pm 9.7 W 21 24 994.7 - 3.2 - - - - - - -
17/05:30pm 9.9 W 21 26 994.6 - 3.2 - - - - - - -
17/05:00pm 9.6 W 21 26 994.3 - 3.2 - - - - - - -
17/04:30pm 9.8 W 17 22 994.2 - 2.8 - - - - - - -
17/04:00pm 9.5 WNW 17 20 994.0 - 2.6 - - - - - - -
17/03:30pm 9.2 W 17 20 994.0 - 2.6 - - - - - - -
17/03:16pm 8.5 W 25 31 994.3 - 2.4 - - - - - - -
17/03:00pm 8.0 W 23 42 994.4 - 1.4 Rain - - - - - -
17/02:59pm 8.2 W 22 42 994.4 - 1.2 - - - - - - -
17/02:57pm 10.3 W 19 36 994.1 - 0.4 - - - - - - -
17/02:30pm 11.1 W 21 27 993.4 - 0.0 - - - - - - -
17/02:00pm 11.8 WNW 24 27 993.3 - 0.0 - - - - - - -
17/01:30pm 11.1 WNW 25 30 993.3 - 0.0 - - - - - - -
17/01:00pm 11.1 WNW 21 26 993.6 - 0.0 - - - - - - -
17/12:30pm 11.2 WNW 27 32 993.7 - 0.0 - - - - - - -
17/12:00pm 11.5 W 24 29 993.9 - 0.0 - - - - - - -
17/11:30am 11.2 W 23 27 994.1 - 0.0 - - - - - - -
17/11:00am 11.2 W 23 27 994.4 - 0.0 - - - - - - -
17/10:30am 10.9 W 23 28 994.5 - 0.0 - - - - - - -
17/10:00am 10.2 W 23 26 994.5 - 0.0 - - - - - - -
17/09:30am 10.3 W 24 29 994.7 - 0.0 - - - - - - -
17/09:00am 10.1 W 23 27 994.7 - 3.0 - - - - - - -
17/08:30am 10.0 W 25 31 994.3 - 3.0 - - - - - - -
17/08:00am 10.2 W 25 30 994.1 - 3.0 - - - - - - -
17/07:30am 10.0 W 21 24 993.7 - 3.0 - - - - - - -
17/07:00am 9.9 W 24 29 993.3 - 3.0 - - - - - - -
17/06:58am 9.8 W 25 35 993.2 - 3.0 - - - - - - -
17/06:30am 10.3 W 27 32 993.5 - 3.0 - - - - - - -
17/06:00am 9.6 W 25 31 993.3 - 3.0 Recent precip. - - - - - -
17/05:30am 9.3 WNW 27 33 993.1 - 3.0 - - - - - - -
17/05:00am 9.2 W 29 45 993.3 - 2.8 - - - - - - -
17/04:40am 9.8 W 29 39 992.8 - 2.8 - - - - - - -
17/04:30am 9.7 W 28 34 992.3 - 2.8 - - - - - - -
17/04:00am 8.7 W 31 38 991.8 - 2.6 - - - - - - -
17/03:51am 8.3 W 37 48 992.6 - 2.6 - - - - - - -
17/03:44am 9.3 W 32 46 992.6 - 1.8 - - - - - - -
17/03:42am 10.0 W 29 40 991.9 - 1.6 - - - - - - -
17/03:30am 11.0 WNW 28 33 991.9 - 1.6 - - - - - - -
17/03:00am 10.7 WNW 28 36 991.9 - 1.6 Recent precip. - - - - - -
17/02:30am 9.9 NW 23 27 991.8 - 1.6 - - - - - - -
17/02:00am 10.9 WNW 28 34 992.3 - 1.2 - - - - - - -
17/01:30am 10.9 WNW 25 33 992.7 - 1.2 - - - - - - -
17/01:00am 11.0 WNW 26 35 992.7 - 1.2 - - - - - - -
17/12:58am 11.3 WNW 25 35 992.7 - 1.2 - - - - - - -
17/12:30am 11.3 WNW 27 32 992.7 - 1.2 - - - - - - -
17/12:00am 11.6 WNW 20 25 993.1 - 1.2 - - - - - - -
 
Date/Time
EST
Temp
°C
Wind Pressure Rain since
9am
mm
Weather Cloud Vis
km
Sea
Height
m
Swell
Dir  Spd
kts
Gust
kts
hPa Trend Height
m
Period
s
Dir
16/11:30pm 11.2 W 21 25 993.2 - 1.2 - - - - - - -
16/11:00pm 11.3 WNW 25 30 993.4 - 1.2 - - - - - - -
16/10:30pm 11.2 W 24 30 993.4 - 1.2 - - - - - - -
16/10:00pm 11.1 WNW 27 32 993.4 - 1.2 - - - - - - -
16/09:30pm 11.3 WNW 28 35 993.5 - 1.2 - - - - - - -
16/09:03pm 11.2 W 23 33 993.3 - 1.2 - - - - - - -
16/09:00pm 11.3 W 21 26 993.2 - 1.2 - - - - - - -
16/08:31pm 11.2 W 20 30 993.3 - 1.2 - - - - - - -
16/08:30pm 11.3 W 20 23 993.3 - 1.2 - - - - - - -
16/08:00pm 11.5 W 24 29 992.9 - 1.2 - - - - - - -
16/07:30pm 11.7 W 25 31 992.8 - 1.2 - - - - - - -
16/07:00pm 11.7 W 29 39 992.2 - 1.2 - - - - - - -
16/06:58pm 11.6 W 28 39 992.2 - 1.2 - - - - - - -
16/06:30pm 11.8 W 26 30 991.8 - 1.2 - - - - - - -
16/06:00pm 11.1 W 24 31 991.1 - 1.2 Recent precip. - - - - - -
16/05:30pm 10.9 W 28 35 990.6 - 1.2 - - - - - - -
16/05:10pm 10.8 W 30 42 990.4 - 1.2 - - - - - - -
16/05:07pm 10.7 W 29 42 990.5 - 1.2 - - - - - - -
16/05:04pm 11.3 WNW 26 36 990.3 - 0.8 - - - - - - -
16/05:00pm 11.5 WNW 25 30 989.9 - 0.6 - - - - - - -
16/04:30pm 11.6 W 29 35 989.7 - 0.6 - - - - - - -
16/04:00pm 11.6 WNW 30 36 989.2 - 0.6 - - - - - - -
16/03:30pm 11.8 WNW 31 40 988.6 - 0.6 - - - - - - -
16/03:00pm 11.9 W 29 39 988.3 - 0.6 - - - - - - -
16/02:30pm 11.7 W 26 38 987.9 - 0.6 - - - - - - -
16/02:02pm 12.4 WNW 27 37 987.5 - 0.6 - - - - - - -
16/02:00pm 12.4 WNW 28 36 987.5 - 0.6 - - - - - - -
16/01:34pm 12.1 WNW 30 40 987.2 - 0.6 - - - - - - -
16/01:30pm 12.3 WNW 29 35 987.2 - 0.6 - - - - - - -
16/01:00pm 11.9 WNW 26 30 987.0 - 0.6 - - - - - - -
16/12:30pm 11.6 W 30 34 987.1 - 0.6 - - - - - - -
16/12:00pm 12.1 WNW 26 33 987.2 - 0.4 - - - - - - -
16/11:30am 12.1 WNW 27 32 987.0 - 0.4 - - - - - - -
16/11:00am 12.1 WNW 25 31 986.9 - 0.4 - - - - - - -
16/10:30am 11.7 WNW 25 32 986.6 - 0.4 - - - - - - -
16/10:00am 11.3 W 21 27 986.2 - 0.4 - - - - - - -
16/09:52am 11.3 WNW 24 29 986.0 - 0.4 - - - - - - -

Other Formats:

Comma delimited format used in spreadsheet applications
http://www.bom.gov.au/fwo/IDV60701/IDV60701.95964.axf

JavaScript Object Notation format (JSON) in row-major order
http://www.bom.gov.au/fwo/IDV60701/IDV60701.95964.json